sensor_id;sensor_type;location;lat;lon;timestamp;pressure;altitude;pressure_sealevel;temperature;humidity
48790;BME280;41718;51.980;5.734;2023-02-13T00:04:40;103627.94;;;5.68;100.00
48790;BME280;41718;51.980;5.734;2023-02-13T00:10:24;103617.41;;;5.65;100.00
48790;BME280;41718;51.980;5.734;2023-02-13T00:15:38;103616.63;;;5.66;100.00
48790;BME280;41718;51.980;5.734;2023-02-13T00:21:05;103608.72;;;5.63;100.00
48790;BME280;41718;51.980;5.734;2023-02-13T00:26:22;103601.00;;;5.63;100.00
48790;BME280;41718;51.980;5.734;2023-02-13T00:32:11;103588.69;;;5.58;100.00
48790;BME280;41718;51.980;5.734;2023-02-13T00:37:48;103587.31;;;5.52;100.00
48790;BME280;41718;51.980;5.734;2023-02-13T00:42:57;103596.44;;;5.48;100.00
48790;BME280;41718;51.980;5.734;2023-02-13T00:48:45;103604.00;;;5.47;100.00
48790;BME280;41718;51.980;5.734;2023-02-13T00:54:46;103604.78;;;5.46;100.00
48790;BME280;41718;51.980;5.734;2023-02-13T00:59:52;103594.94;;;5.40;100.00
48790;BME280;41718;51.980;5.734;2023-02-13T01:05:06;103594.78;;;5.39;100.00
48790;BME280;41718;51.980;5.734;2023-02-13T01:10:08;103595.94;;;5.42;100.00
48790;BME280;41718;51.980;5.734;2023-02-13T01:15:10;103605.19;;;5.40;100.00
48790;BME280;41718;51.980;5.734;2023-02-13T01:20:13;103607.75;;;5.40;100.00
48790;BME280;41718;51.980;5.734;2023-02-13T01:25:14;103605.81;;;5.38;100.00
48790;BME280;41718;51.980;5.734;2023-02-13T01:30:17;103596.59;;;5.40;100.00
48790;BME280;41718;51.980;5.734;2023-02-13T01:35:19;103596.19;;;5.45;100.00
48790;BME280;41718;51.980;5.734;2023-02-13T01:40:23;103590.28;;;5.46;100.00
48790;BME280;41718;51.980;5.734;2023-02-13T01:45:29;103589.63;;;5.49;100.00
48790;BME280;41718;51.980;5.734;2023-02-13T01:55:46;103578.56;;;5.50;100.00
48790;BME280;41718;51.980;5.734;2023-02-13T02:00:52;103584.25;;;5.46;100.00
48790;BME280;41718;51.980;5.734;2023-02-13T02:05:56;103576.56;;;5.46;100.00
48790;BME280;41718;51.980;5.734;2023-02-13T02:11:06;103575.88;;;5.48;100.00
48790;BME280;41718;51.980;5.734;2023-02-13T02:16:10;103580.78;;;5.45;100.00
48790;BME280;41718;51.980;5.734;2023-02-13T02:21:40;103582.47;;;5.45;100.00
48790;BME280;41718;51.980;5.734;2023-02-13T02:27:15;103563.75;;;5.36;100.00
48790;BME280;41718;51.980;5.734;2023-02-13T02:32:35;103572.94;;;5.44;100.00
48790;BME280;41718;51.980;5.734;2023-02-13T02:37:52;103570.53;;;5.45;100.00
48790;BME280;41718;51.980;5.734;2023-02-13T02:54:09;103577.56;;;5.48;100.00
48790;BME280;41718;51.980;5.734;2023-02-13T02:59:35;103573.22;;;5.47;100.00
48790;BME280;41718;51.980;5.734;2023-02-13T03:05:00;103568.06;;;5.47;100.00
48790;BME280;41718;51.980;5.734;2023-02-13T03:10:30;103561.00;;;5.44;100.00
48790;BME280;41718;51.980;5.734;2023-02-13T03:15:55;103560.38;;;5.47;100.00
48790;BME280;41718;51.980;5.734;2023-02-13T03:21:22;103567.19;;;5.46;100.00
48790;BME280;41718;51.980;5.734;2023-02-13T03:37:56;103569.28;;;5.30;100.00
48790;BME280;41718;51.980;5.734;2023-02-13T03:43:13;103572.88;;;5.32;100.00
48790;BME280;41718;51.980;5.734;2023-02-13T03:48:25;103566.47;;;5.27;100.00
48790;BME280;41718;51.980;5.734;2023-02-13T03:53:51;103564.94;;;5.29;100.00
48790;BME280;41718;51.980;5.734;2023-02-13T03:58:59;103561.63;;;5.20;100.00
48790;BME280;41718;51.980;5.734;2023-02-13T04:05:07;103569.31;;;5.20;100.00
48790;BME280;41718;51.980;5.734;2023-02-13T04:09:45;103573.44;;;5.18;100.00
48790;BME280;41718;51.980;5.734;2023-02-13T04:15:16;103583.69;;;5.18;100.00
48790;BME280;41718;51.980;5.734;2023-02-13T04:20:15;103578.56;;;5.18;100.00
48790;BME280;41718;51.980;5.734;2023-02-13T04:25:20;103568.72;;;5.12;100.00
48790;BME280;41718;51.980;5.734;2023-02-13T04:30:23;103571.38;;;5.14;100.00
48790;BME280;41718;51.980;5.734;2023-02-13T04:35:25;103567.16;;;5.14;100.00
48790;BME280;41718;51.980;5.734;2023-02-13T04:40:29;103578.31;;;5.15;100.00
48790;BME280;41718;51.980;5.734;2023-02-13T04:45:34;103567.31;;;5.05;100.00
48790;BME280;41718;51.980;5.734;2023-02-13T04:50:36;103568.44;;;5.09;100.00
48790;BME280;41718;51.980;5.734;2023-02-13T04:55:40;103572.06;;;5.11;100.00
48790;BME280;41718;51.980;5.734;2023-02-13T05:00:42;103572.28;;;5.14;100.00
48790;BME280;41718;51.980;5.734;2023-02-13T05:05:43;103561.25;;;5.15;100.00
48790;BME280;41718;51.980;5.734;2023-02-13T05:10:52;103546.50;;;5.13;100.00
48790;BME280;41718;51.980;5.734;2023-02-13T05:15:55;103542.28;;;5.13;100.00
48790;BME280;41718;51.980;5.734;2023-02-13T05:20:59;103539.22;;;5.07;100.00
48790;BME280;41718;51.980;5.734;2023-02-13T05:26:21;103542.78;;;5.09;100.00
48790;BME280;41718;51.980;5.734;2023-02-13T05:31:27;103527.94;;;5.05;100.00
48790;BME280;41718;51.980;5.734;2023-02-13T05:36:28;103531.41;;;5.05;100.00
48790;BME280;41718;51.980;5.734;2023-02-13T05:41:31;103533.41;;;5.10;100.00
48790;BME280;41718;51.980;5.734;2023-02-13T05:46:33;103527.28;;;5.08;100.00
48790;BME280;41718;51.980;5.734;2023-02-13T05:51:35;103519.88;;;5.00;100.00
48790;BME280;41718;51.980;5.734;2023-02-13T05:56:39;103532.16;;;5.04;100.00
48790;BME280;41718;51.980;5.734;2023-02-13T06:01:42;103533.97;;;5.05;100.00
48790;BME280;41718;51.980;5.734;2023-02-13T06:06:48;103535.09;;;5.09;100.00
48790;BME280;41718;51.980;5.734;2023-02-13T06:11:50;103527.00;;;5.15;100.00
48790;BME280;41718;51.980;5.734;2023-02-13T06:16:52;103526.47;;;5.51;100.00
48790;BME280;41718;51.980;5.734;2023-02-13T06:21:53;103534.16;;;5.73;100.00
48790;BME280;41718;51.980;5.734;2023-02-13T06:26:59;103530.66;;;5.82;100.00
48790;BME280;41718;51.980;5.734;2023-02-13T06:32:21;103530.16;;;5.76;100.00
48790;BME280;41718;51.980;5.734;2023-02-13T06:37:28;103517.31;;;5.76;100.00
48790;BME280;41718;51.980;5.734;2023-02-13T06:42:53;103535.13;;;5.85;100.00
48790;BME280;41718;51.980;5.734;2023-02-13T06:48:27;103538.13;;;5.79;100.00
48790;BME280;41718;51.980;5.734;2023-02-13T06:54:14;103537.47;;;5.82;100.00
48790;BME280;41718;51.980;5.734;2023-02-13T07:00:10;103546.06;;;5.82;100.00
48790;BME280;41718;51.980;5.734;2023-02-13T07:05:13;103548.50;;;5.91;100.00
48790;BME280;41718;51.980;5.734;2023-02-13T07:10:15;103559.38;;;5.89;100.00
48790;BME280;41718;51.980;5.734;2023-02-13T07:15:17;103561.34;;;5.81;100.00
48790;BME280;41718;51.980;5.734;2023-02-13T07:20:24;103555.00;;;5.88;100.00
48790;BME280;41718;51.980;5.734;2023-02-13T07:25:50;103555.13;;;5.89;100.00
48790;BME280;41718;51.980;5.734;2023-02-13T07:30:55;103561.03;;;5.98;100.00
48790;BME280;41718;51.980;5.734;2023-02-13T07:36:03;103572.78;;;6.06;100.00
48790;BME280;41718;51.980;5.734;2023-02-13T07:41:07;103573.34;;;6.02;100.00
48790;BME280;41718;51.980;5.734;2023-02-13T07:46:09;103573.44;;;6.04;100.00
48790;BME280;41718;51.980;5.734;2023-02-13T07:51:10;103577.31;;;6.21;100.00
48790;BME280;41718;51.980;5.734;2023-02-13T07:56:12;103580.09;;;6.24;100.00
48790;BME280;41718;51.980;5.734;2023-02-13T08:01:15;103567.47;;;6.15;100.00
48790;BME280;41718;51.980;5.734;2023-02-13T08:06:20;103576.19;;;6.17;100.00
48790;BME280;41718;51.980;5.734;2023-02-13T08:11:27;103575.28;;;6.17;100.00
48790;BME280;41718;51.980;5.734;2023-02-13T08:16:51;103570.63;;;6.23;100.00
48790;BME280;41718;51.980;5.734;2023-02-13T08:22:00;103577.72;;;6.37;100.00
48790;BME280;41718;51.980;5.734;2023-02-13T08:32:54;103593.97;;;6.48;100.00
48790;BME280;41718;51.980;5.734;2023-02-13T08:38:03;103593.22;;;6.60;100.00
48790;BME280;41718;51.980;5.734;2023-02-13T08:43:05;103581.59;;;6.66;100.00
48790;BME280;41718;51.980;5.734;2023-02-13T08:48:09;103596.25;;;6.67;100.00
48790;BME280;41718;51.980;5.734;2023-02-13T08:53:14;103595.69;;;6.71;100.00
48790;BME280;41718;51.980;5.734;2023-02-13T08:58:16;103594.38;;;6.87;100.00
48790;BME280;41718;51.980;5.734;2023-02-13T09:03:21;103589.69;;;6.94;100.00
48790;BME280;41718;51.980;5.734;2023-02-13T09:08:29;103602.22;;;6.89;100.00
48790;BME280;41718;51.980;5.734;2023-02-13T09:13:36;103590.03;;;6.98;100.00
48790;BME280;41718;51.980;5.734;2023-02-13T09:18:41;103588.03;;;7.06;100.00
48790;BME280;41718;51.980;5.734;2023-02-13T09:23:49;103593.41;;;7.21;100.00
48790;BME280;41718;51.980;5.734;2023-02-13T09:29:03;103586.13;;;7.27;100.00
48790;BME280;41718;51.980;5.734;2023-02-13T09:34:04;103590.69;;;7.42;100.00
48790;BME280;41718;51.980;5.734;2023-02-13T09:39:11;103588.41;;;7.59;100.00
48790;BME280;41718;51.980;5.734;2023-02-13T09:44:14;103595.59;;;7.63;100.00
48790;BME280;41718;51.980;5.734;2023-02-13T09:49:41;103583.16;;;7.57;100.00
48790;BME280;41718;51.980;5.734;2023-02-13T09:54:47;103591.22;;;7.62;100.00
48790;BME280;41718;51.980;5.734;2023-02-13T10:00:10;103586.22;;;7.88;100.00
48790;BME280;41718;51.980;5.734;2023-02-13T10:16:16;103584.25;;;8.09;100.00
48790;BME280;41718;51.980;5.734;2023-02-13T10:21:29;103577.69;;;8.26;100.00
48790;BME280;41718;51.980;5.734;2023-02-13T10:26:38;103577.28;;;8.33;100.00
48790;BME280;41718;51.980;5.734;2023-02-13T10:31:46;103571.69;;;8.39;100.00
48790;BME280;41718;51.980;5.734;2023-02-13T10:36:54;103572.56;;;8.51;100.00
48790;BME280;41718;51.980;5.734;2023-02-13T10:58:07;103559.59;;;8.76;100.00
48790;BME280;41718;51.980;5.734;2023-02-13T11:03:24;103560.88;;;8.83;100.00
48790;BME280;41718;51.980;5.734;2023-02-13T11:08:37;103547.63;;;9.86;100.00
48790;BME280;41718;51.980;5.734;2023-02-13T11:13:43;103538.75;;;9.67;100.00
48790;BME280;41718;51.980;5.734;2023-02-13T11:18:48;103527.81;;;10.14;100.00
48790;BME280;41718;51.980;5.734;2023-02-13T11:23:52;103526.19;;;10.29;100.00
48790;BME280;41718;51.980;5.734;2023-02-13T11:29:00;103524.69;;;10.63;100.00
48790;BME280;41718;51.980;5.734;2023-02-13T11:34:24;103520.34;;;11.38;100.00
48790;BME280;41718;51.980;5.734;2023-02-13T11:39:27;103503.19;;;11.73;100.00
48790;BME280;41718;51.980;5.734;2023-02-13T11:44:31;103495.06;;;11.51;100.00
48790;BME280;41718;51.980;5.734;2023-02-13T11:49:36;103497.63;;;12.14;100.00
48790;BME280;41718;51.980;5.734;2023-02-13T11:54:43;103498.22;;;11.45;100.00
48790;BME280;41718;51.980;5.734;2023-02-13T11:59:48;103482.38;;;12.04;100.00
48790;BME280;41718;51.980;5.734;2023-02-13T12:04:55;103490.53;;;11.79;100.00
48790;BME280;41718;51.980;5.734;2023-02-13T12:15:26;103465.66;;;12.15;100.00
48790;BME280;41718;51.980;5.734;2023-02-13T12:36:27;103460.28;;;12.12;100.00
48790;BME280;41718;51.980;5.734;2023-02-13T12:47:21;103466.53;;;11.18;100.00
48790;BME280;41718;51.980;5.734;2023-02-13T13:03:42;103454.81;;;11.25;100.00
48790;BME280;41718;51.980;5.734;2023-02-13T13:30:33;103436.41;;;10.89;100.00
48790;BME280;41718;51.980;5.734;2023-02-13T13:35:42;103427.22;;;10.63;100.00
48790;BME280;41718;51.980;5.734;2023-02-13T13:40:58;103415.69;;;10.58;100.00
48790;BME280;41718;51.980;5.734;2023-02-13T13:46:14;103416.66;;;10.75;100.00
48790;BME280;41718;51.980;5.734;2023-02-13T13:51:19;103402.41;;;10.83;100.00
48790;BME280;41718;51.980;5.734;2023-02-13T13:56:21;103398.78;;;10.79;100.00
48790;BME280;41718;51.980;5.734;2023-02-13T14:01:27;103399.41;;;10.75;100.00
48790;BME280;41718;51.980;5.734;2023-02-13T14:11:43;103393.34;;;10.44;100.00
48790;BME280;41718;51.980;5.734;2023-02-13T14:16:48;103386.34;;;10.43;100.00
48790;BME280;41718;51.980;5.734;2023-02-13T14:21:50;103390.00;;;10.61;100.00
48790;BME280;41718;51.980;5.734;2023-02-13T14:26:55;103386.50;;;10.60;100.00
48790;BME280;41718;51.980;5.734;2023-02-13T14:32:38;103387.91;;;10.24;100.00
48790;BME280;41718;51.980;5.734;2023-02-13T14:37:55;103387.97;;;10.41;100.00
48790;BME280;41718;51.980;5.734;2023-02-13T14:49:01;103370.69;;;10.25;100.00
48790;BME280;41718;51.980;5.734;2023-02-13T14:54:24;103371.72;;;10.14;100.00
48790;BME280;41718;51.980;5.734;2023-02-13T14:59:30;103370.56;;;10.08;100.00
48790;BME280;41718;51.980;5.734;2023-02-13T15:04:42;103362.84;;;10.23;100.00
48790;BME280;41718;51.980;5.734;2023-02-13T15:10:13;103371.16;;;10.32;100.00
48790;BME280;41718;51.980;5.734;2023-02-13T15:15:26;103355.66;;;10.19;100.00
48790;BME280;41718;51.980;5.734;2023-02-13T15:20:36;103366.22;;;10.07;100.00
48790;BME280;41718;51.980;5.734;2023-02-13T15:31:22;103359.16;;;9.90;100.00
48790;BME280;41718;51.980;5.734;2023-02-13T15:36:39;103364.84;;;9.70;100.00
48790;BME280;41718;51.980;5.734;2023-02-13T15:42:23;103368.72;;;9.76;100.00
48790;BME280;41718;51.980;5.734;2023-02-13T16:00:01;103340.81;;;9.71;100.00
48790;BME280;41718;51.980;5.734;2023-02-13T16:05:13;103358.06;;;9.42;100.00
48790;BME280;41718;51.980;5.734;2023-02-13T16:10:45;103348.78;;;9.46;100.00
48790;BME280;41718;51.980;5.734;2023-02-13T16:15:58;103348.22;;;9.22;100.00
48790;BME280;41718;51.980;5.734;2023-02-13T16:21:26;103344.16;;;9.12;100.00
48790;BME280;41718;51.980;5.734;2023-02-13T16:26:39;103352.16;;;9.02;100.00
48790;BME280;41718;51.980;5.734;2023-02-13T16:31:49;103345.97;;;8.85;100.00
48790;BME280;41718;51.980;5.734;2023-02-13T16:36:57;103346.66;;;8.83;100.00
48790;BME280;41718;51.980;5.734;2023-02-13T16:42:20;103336.16;;;8.66;100.00
48790;BME280;41718;51.980;5.734;2023-02-13T16:53:43;103341.72;;;8.33;100.00
48790;BME280;41718;51.980;5.734;2023-02-13T16:59:21;103353.63;;;8.31;100.00
48790;BME280;41718;51.980;5.734;2023-02-13T17:10:20;103375.72;;;8.01;100.00
48790;BME280;41718;51.980;5.734;2023-02-13T17:15:34;103372.22;;;7.87;100.00
48790;BME280;41718;51.980;5.734;2023-02-13T17:21:23;103371.09;;;7.70;100.00
48790;BME280;41718;51.980;5.734;2023-02-13T17:26:41;103373.41;;;7.54;100.00
48790;BME280;41718;51.980;5.734;2023-02-13T17:31:51;103374.50;;;7.07;100.00
48790;BME280;41718;51.980;5.734;2023-02-13T17:37:30;103389.00;;;6.82;100.00
48790;BME280;41718;51.980;5.734;2023-02-13T17:42:49;103379.75;;;6.60;100.00
48790;BME280;41718;51.980;5.734;2023-02-13T17:48:21;103390.59;;;6.33;100.00
48790;BME280;41718;51.980;5.734;2023-02-13T17:54:08;103384.44;;;6.19;100.00
48790;BME280;41718;51.980;5.734;2023-02-13T17:59:18;103383.22;;;6.02;100.00
48790;BME280;41718;51.980;5.734;2023-02-13T18:04:25;103380.84;;;5.72;100.00
48790;BME280;41718;51.980;5.734;2023-02-13T18:09:50;103376.72;;;5.62;100.00
48790;BME280;41718;51.980;5.734;2023-02-13T18:15:38;103371.91;;;5.33;100.00
48790;BME280;41718;51.980;5.734;2023-02-13T18:21:20;103389.47;;;5.17;100.00
48790;BME280;41718;51.980;5.734;2023-02-13T18:32:28;103387.59;;;5.04;100.00
48790;BME280;41718;51.980;5.734;2023-02-13T18:37:50;103382.72;;;4.85;100.00
48790;BME280;41718;51.980;5.734;2023-02-13T18:43:18;103383.44;;;4.62;100.00
48790;BME280;41718;51.980;5.734;2023-02-13T18:48:52;103401.91;;;4.58;100.00
48790;BME280;41718;51.980;5.734;2023-02-13T18:54:00;103386.31;;;4.45;100.00
48790;BME280;41718;51.980;5.734;2023-02-13T18:59:48;103387.53;;;4.18;100.00
48790;BME280;41718;51.980;5.734;2023-02-13T19:05:00;103382.78;;;4.12;100.00
48790;BME280;41718;51.980;5.734;2023-02-13T21:14:11;103387.91;;;1.96;100.00
48790;BME280;41718;51.980;5.734;2023-02-13T21:19:27;103372.78;;;1.70;100.00
48790;BME280;41718;51.980;5.734;2023-02-13T21:43:32;103371.19;;;1.80;100.00
48790;BME280;41718;51.980;5.734;2023-02-13T21:49:25;103367.53;;;1.87;100.00
48790;BME280;41718;51.980;5.734;2023-02-13T22:19:39;103344.56;;;1.49;100.00
48790;BME280;41718;51.980;5.734;2023-02-13T22:25:29;103354.63;;;1.48;100.00
48790;BME280;41718;51.980;5.734;2023-02-13T22:31:34;103346.16;;;1.30;100.00
48790;BME280;41718;51.980;5.734;2023-02-13T22:37:51;103347.34;;;1.33;100.00
48790;BME280;41718;51.980;5.734;2023-02-13T22:56:17;103346.22;;;1.21;100.00
48790;BME280;41718;51.980;5.734;2023-02-13T23:01:41;103352.41;;;1.06;100.00
48790;BME280;41718;51.980;5.734;2023-02-13T23:06:43;103338.84;;;0.97;100.00
48790;BME280;41718;51.980;5.734;2023-02-13T23:18:17;103347.00;;;0.75;100.00
48790;BME280;41718;51.980;5.734;2023-02-13T23:24:05;103336.94;;;0.86;100.00
48790;BME280;41718;51.980;5.734;2023-02-13T23:29:59;103323.81;;;0.64;100.00
48790;BME280;41718;51.980;5.734;2023-02-13T23:35:48;103328.25;;;0.75;100.00
48790;BME280;41718;51.980;5.734;2023-02-13T23:41:37;103326.50;;;0.57;100.00
48790;BME280;41718;51.980;5.734;2023-02-13T23:47:20;103337.31;;;0.45;100.00
48790;BME280;41718;51.980;5.734;2023-02-13T23:53:43;103337.34;;;0.37;100.00
48790;BME280;41718;51.980;5.734;2023-02-13T23:59:26;103336.44;;;0.28;100.00
